Flight Track Log - Related Links

Times and Time Zones

All times are in EDT time to prevent confusion due to time zone crossing. See the FDX128 flight status page for this flight to view local times or setup timezone preferences in your user account.

Time Position Orientation Groundspeed Altitude Reporting Facility
EDT Latitude Longitude Course Direction KTS MPH feet Rate Location/Type
Sat 05:13:00 AM 35.0500 -89.9667 360° North 793 913 800  Level KMEM
Sat 05:13:42 AM 35.0833 -89.9667 360° North 207 238 2,300 2,944 Climbing KMEM
Sat 05:14:48 AM 35.1667 -89.9500 North 273 314 6,100 3,696 Climbing KMEM
Sat 05:15:47 AM 35.2500 -89.9333 North 296 341 10,000 2,426 Climbing KMEM
Sat 05:17:56 AM 35.4508 -89.8831 12° North 379 436 13,700 2,286 Climbing Memphis Center
Sat 05:18:56 AM 35.5736 -89.8542 11° North 434 499 17,200 3,150 Climbing Memphis Center
Sat 05:19:56 AM 35.6944 -89.8203 13° North 447 514 20,000 2,750 Climbing Memphis Center
Sat 05:20:56 AM 35.8067 -89.7300 33° Northeast 453 521 22,700 2,450 Climbing Memphis Center
Sat 05:21:56 AM 35.9083 -89.6111 43° Northeast 463 533 24,900 2,450 Climbing Memphis Center
Sat 05:22:56 AM 36.0094 -89.4844 45° Northeast 495 570 27,600 2,400 Climbing Memphis Center
Sat 05:23:56 AM 36.1108 -89.3600 45° Northeast 500 575 29,700 2,050 Climbing Memphis Center
Sat 05:24:56 AM 36.2119 -89.2303 46° Northeast 507 583 31,700 1,150 Climbing Memphis Center
Sat 05:25:56 AM 36.3189 -89.1025 44° Northeast 518 596 32,000 150 Climbing Memphis Center
Sat 05:26:56 AM 36.4239 -88.9772 44° Northeast 518 596 32,000 850 Level Memphis Center
Sat 05:27:56 AM 36.5369 -88.8358 45° Northeast 523 602 33,700 1,400 Climbing Memphis Center
Sat 05:28:56 AM 36.6394 -88.7097 45° Northeast 523 602 34,800 650 Climbing Memphis Center
Sat 05:29:56 AM 36.7442 -88.5781 45° Northeast 523 602 35,000 100 Climbing Memphis Center
Sat 05:30:56 AM 36.8464 -88.4489 45° Northeast 523 602 35,000  Level Memphis Center
Sat 05:32:33 AM 37.0106 -88.2425 45° Northeast 522 601 35,000  Level Indianapolis Center
Sat 05:34:34 AM 37.2006 -87.9992 46° Northeast 527 606 35,000  Level Indianapolis Center
Sat 05:35:34 AM 37.3028 -87.8678 46° Northeast 523 602 35,000  Level Indianapolis Center
Sat 05:36:35 AM 37.4078 -87.7383 44° Northeast 522 601 35,000  Level Indianapolis Center
Sat 05:37:35 AM 37.5428 -87.6828 18° North 508 585 35,000  Level Indianapolis Center
Sat 05:38:36 AM 37.6803 -87.7067 352° North 493 567 35,000  Level Indianapolis Center
Sat 05:39:36 AM 37.8139 -87.7169 357° North 495 570 35,000  Level Indianapolis Center
Sat 05:40:37 AM 37.9503 -87.6656 17° North 509 586 35,000  Level Indianapolis Center
Sat 05:41:37 AM 38.0639 -87.5519 38° Northeast 518 596 35,000  Level Indianapolis Center
Sat 05:42:38 AM 38.1547 -87.4075 51° Northeast 522 601 35,000  Level Indianapolis Center
Sat 05:43:38 AM 38.2467 -87.2625 51° Northeast 522 601 35,000  Level Indianapolis Center
Sat 05:44:39 AM 38.3381 -87.1144 52° Northeast 528 608 35,000  Level Indianapolis Center
Sat 05:45:39 AM 38.4406 -86.9533 51° Northeast 533 613 35,000  Level Indianapolis Center
Sat 05:46:40 AM 38.5339 -86.8047 51° Northeast 532 612 35,000  Level Indianapolis Center
Sat 05:47:40 AM 38.6250 -86.6578 52° Northeast 528 608 35,000 99 Level Indianapolis Center
Sat 05:48:41 AM 38.7175 -86.5092 51° Northeast 530 610 35,200 744 Climbing Indianapolis Center
Sat 05:49:41 AM 38.8081 -86.3608 52° Northeast 528 608 36,500 893 Climbing Indianapolis Center
Sat 05:50:42 AM 38.9050 -86.2050 51° Northeast 532 612 37,000 248 Climbing Indianapolis Center
Sat 05:51:42 AM 38.9956 -86.0533 52° Northeast 538 619 37,000  Level Indianapolis Center
Sat 05:52:43 AM 39.0869 -85.9025 52° Northeast 538 619 37,000  Level Indianapolis Center
Sat 05:53:43 AM 39.1775 -85.7522 52° Northeast 537 618 37,000  Level Indianapolis Center
Sat 05:54:44 AM 39.2681 -85.6014 52° Northeast 537 618 37,000  Level Indianapolis Center
Sat 05:55:44 AM 39.3594 -85.4519 52° Northeast 535 616 37,000  Level Indianapolis Center
Sat 05:56:45 AM 39.4561 -85.3097 49° Northeast 533 613 37,000  Level Indianapolis Center
Sat 05:57:45 AM 39.5528 -85.1650 49° Northeast 533 613 37,000  Level Indianapolis Center
Sat 05:58:46 AM 39.6489 -85.0206 49° Northeast 534 615 37,000  Level Indianapolis Center
Sat 05:59:46 AM 39.7550 -84.8611 49° Northeast 533 613 37,000  Level Indianapolis Center
Sat 06:00:47 AM 39.8533 -84.7122 49° Northeast 536 617 37,000  Level Indianapolis Center
Sat 06:01:47 AM 39.9508 -84.5628 50° Northeast 535 616 37,000  Level Indianapolis Center
Sat 06:02:48 AM 40.0494 -84.4128 49° Northeast 537 618 37,000  Level Indianapolis Center
Sat 06:03:48 AM 40.1472 -84.2614 50° Northeast 538 619 37,000  Level Indianapolis Center
Sat 06:04:48 AM 40.2450 -84.1108 50° Northeast 536 617 37,000  Level Indianapolis Center
Sat 06:05:49 AM 40.3411 -83.9564 51° Northeast 539 620 37,000  Level Indianapolis Center
Sat 06:06:49 AM 40.4317 -83.7958 53° Northeast 538 619 37,000  Level Indianapolis Center
Sat 06:07:50 AM 40.5239 -83.6375 53° Northeast 539 620 37,000  Level Indianapolis Center
Sat 06:08:50 AM 40.6164 -83.4764 53° Northeast 543 625 37,000  Level Indianapolis Center
Sat 06:09:51 AM 40.7078 -83.3172 53° Northeast 538 619 37,000  Level Indianapolis Center
Sat 06:10:51 AM 40.7867 -83.1786 53° Northeast 542 624 37,000  Level Indianapolis Center
Sat 06:11:52 AM 40.8792 -83.0189 53° Northeast 541 623 37,000  Level Indianapolis Center
Sat 06:12:52 AM 40.9694 -82.8558 54° Northeast 543 625 37,000  Level Indianapolis Center
Sat 06:13:53 AM 41.0608 -82.6933 53° Northeast 544 626 37,000  Level Indianapolis Center
Sat 06:14:53 AM 41.1517 -82.5306 53° Northeast 543 625 37,000  Level Indianapolis Center
Sat 06:15:54 AM 41.2428 -82.3675 53° Northeast 542 624 37,000  Level Indianapolis Center
Sat 06:16:54 AM 41.3358 -82.2089 52° Northeast 539 620 37,000 -248 Level Indianapolis Center
Sat 06:17:55 AM 41.4639 -82.0989 33° Northeast 536 617 36,500 -1,315 Descending Indianapolis Center
Sat 06:19:20 AM 41.6722 -81.9786 23° Northeast 522 601 33,800 -1,448 Descending Cleveland Center
Sat 06:20:20 AM 41.8064 -81.8953 25° Northeast 522 601 33,000 -400 Descending Cleveland Center
Sat 06:21:20 AM 41.9283 -81.8222 24° Northeast 536 617 33,000  Level Cleveland Center
Sat 06:22:20 AM 42.0647 -81.7411 24° Northeast 536 617 33,000  Level Cleveland Center
Sat 06:23:20 AM 42.2050 -81.6622 23° Northeast 536 617 33,000  Level Cleveland Center
Sat 06:24:20 AM 42.3392 -81.5803 24° Northeast 525 604 33,000  Level Cleveland Center
Sat 06:25:20 AM 42.4733 -81.4981 24° Northeast 525 604 33,000 -600 Level Cleveland Center
Sat 06:26:20 AM 42.6094 -81.4125 25° Northeast 530 610 31,800 -1,150 Descending Cleveland Center
Sat 06:27:20 AM 42.7539 -81.3239 24° Northeast 518 596 30,700 -1,612 Descending Cleveland Center
Sat 06:28:34 AM 42.9000 -81.2000 32° Northeast 510 587 28,200 -1,925 Descending Toronto Center
Sat 06:29:34 AM 43.0167 -81.1333 23° Northeast 490 564 26,400 -1,900 Descending Toronto Center
Sat 06:30:34 AM 43.1000 -81.0000 49° Northeast 470 541 24,400 -2,200 Descending Toronto Center
Sat 06:31:34 AM 43.1667 -80.8667 56° Northeast 450 518 22,000 -3,150 Descending Toronto Center
Sat 06:32:34 AM 43.2667 -80.7167 47° Northeast 450 518 18,100 -3,550 Descending Toronto Center
Sat 06:33:34 AM 43.3333 -80.6000 52° Northeast 430 495 14,900 -2,700 Descending Toronto Center
Sat 06:34:34 AM 43.4333 -80.5333 26° Northeast 400 460 12,700 -1,900 Descending Toronto Center
Sat 06:35:34 AM 43.5000 -80.4667 36° Northeast 350 403 11,100 -1,200 Descending Toronto Center
Sat 06:36:34 AM 43.5333 -80.3667 65° Northeast 280 322 10,300 -1,150 Descending Toronto Center
Sat 06:37:34 AM 43.5000 -80.2833 119° Southeast 260 299 8,800 -1,550 Descending Toronto Center
Sat 06:38:34 AM 43.4833 -80.1667 101° East 260 299 7,200 -1,150 Descending Toronto Center
Sat 06:39:34 AM 43.4833 -80.0667 90° East 250 288 6,500 -750 Descending Toronto Center
Sat 06:40:34 AM 43.4833 -80.0000 90° East 240 276 5,700 -1,200 Descending Toronto Center
Sat 06:41:34 AM 43.4833 -79.9167 90° East 220 253 4,100 -1,300 Descending Toronto Center
Sat 06:42:34 AM 43.5333 -79.8333 50° Northeast 220 253 3,100 -550 Descending Toronto Center
Sat 06:43:34 AM 43.5667 -79.7667 55° Northeast 210 242 3,000 -400 Descending Toronto Center
Sat 06:44:34 AM 43.6000 -79.7333 36° Northeast 190 219 2,300 -850 Descending Toronto Center
Sat 06:45:34 AM 43.6333 -79.6833 47° Northeast 180 207 1,300 -900 Descending Toronto Center
Sat 06:46:34 AM 43.6667 -79.6333 47° Northeast 160 184 500 -800 Descending Toronto Center

Login

Don't have an account? Register now (free) for customized features, flight alerts, and more!